sensor_id;sensor_type;location;lat;lon;timestamp;pressure;altitude;pressure_sealevel;temperature;humidity
4576;BME280;2300;51.874;8.430;2023-07-30T00:01:29;100042.03;;;17.48;100.00
4576;BME280;2300;51.874;8.430;2023-07-30T00:03:55;100052.84;;;17.50;100.00
4576;BME280;2300;51.874;8.430;2023-07-30T00:06:22;100049.25;;;17.49;100.00
4576;BME280;2300;51.874;8.430;2023-07-30T00:08:48;100050.00;;;17.55;100.00
4576;BME280;2300;51.874;8.430;2023-07-30T00:11:16;100050.53;;;17.57;100.00
4576;BME280;2300;51.874;8.430;2023-07-30T00:13:43;100051.66;;;17.56;100.00
4576;BME280;2300;51.874;8.430;2023-07-30T00:16:09;100055.03;;;17.53;100.00
4576;BME280;2300;51.874;8.430;2023-07-30T00:18:36;100053.31;;;17.57;100.00
4576;BME280;2300;51.874;8.430;2023-07-30T00:21:02;100060.34;;;17.49;100.00
4576;BME280;2300;51.874;8.430;2023-07-30T00:23:29;100056.19;;;17.47;100.00
4576;BME280;2300;51.874;8.430;2023-07-30T00:25:56;100058.97;;;17.47;100.00
4576;BME280;2300;51.874;8.430;2023-07-30T00:28:23;100057.44;;;17.36;100.00
4576;BME280;2300;51.874;8.430;2023-07-30T00:30:50;100064.56;;;17.42;100.00
4576;BME280;2300;51.874;8.430;2023-07-30T00:33:17;100067.94;;;17.39;100.00
4576;BME280;2300;51.874;8.430;2023-07-30T00:35:43;100061.31;;;17.35;100.00
4576;BME280;2300;51.874;8.430;2023-07-30T00:38:10;100062.38;;;17.39;100.00
4576;BME280;2300;51.874;8.430;2023-07-30T00:40:39;100062.16;;;17.35;100.00
4576;BME280;2300;51.874;8.430;2023-07-30T00:43:06;100054.06;;;17.39;100.00
4576;BME280;2300;51.874;8.430;2023-07-30T00:45:34;100059.72;;;17.29;100.00
4576;BME280;2300;51.874;8.430;2023-07-30T00:48:02;100071.38;;;17.26;100.00
4576;BME280;2300;51.874;8.430;2023-07-30T00:50:28;100066.97;;;17.25;100.00
4576;BME280;2300;51.874;8.430;2023-07-30T00:52:55;100068.59;;;17.26;100.00
4576;BME280;2300;51.874;8.430;2023-07-30T00:55:22;100072.56;;;17.20;100.00
4576;BME280;2300;51.874;8.430;2023-07-30T00:57:50;100072.06;;;17.12;100.00
4576;BME280;2300;51.874;8.430;2023-07-30T01:00:18;100067.66;;;17.06;100.00
4576;BME280;2300;51.874;8.430;2023-07-30T01:02:46;100074.34;;;17.00;100.00
4576;BME280;2300;51.874;8.430;2023-07-30T01:05:12;100074.06;;;17.02;100.00
4576;BME280;2300;51.874;8.430;2023-07-30T01:07:39;100070.72;;;17.05;100.00
4576;BME280;2300;51.874;8.430;2023-07-30T01:10:06;100081.00;;;17.04;100.00
4576;BME280;2300;51.874;8.430;2023-07-30T01:12:34;100073.81;;;16.98;100.00
4576;BME280;2300;51.874;8.430;2023-07-30T01:15:03;100082.66;;;17.00;100.00
4576;BME280;2300;51.874;8.430;2023-07-30T01:17:30;100083.78;;;16.99;100.00
4576;BME280;2300;51.874;8.430;2023-07-30T01:19:58;100083.00;;;16.94;100.00
4576;BME280;2300;51.874;8.430;2023-07-30T01:22:26;100087.41;;;16.95;100.00
4576;BME280;2300;51.874;8.430;2023-07-30T01:24:53;100091.97;;;16.81;100.00
4576;BME280;2300;51.874;8.430;2023-07-30T01:27:23;100096.13;;;16.83;100.00
4576;BME280;2300;51.874;8.430;2023-07-30T01:29:53;100095.03;;;16.74;100.00
4576;BME280;2300;51.874;8.430;2023-07-30T01:32:26;100098.38;;;16.76;100.00
4576;BME280;2300;51.874;8.430;2023-07-30T01:34:56;100103.34;;;16.74;100.00
4576;BME280;2300;51.874;8.430;2023-07-30T01:37:23;100105.59;;;16.72;100.00
4576;BME280;2300;51.874;8.430;2023-07-30T01:39:53;100110.59;;;16.70;100.00
4576;BME280;2300;51.874;8.430;2023-07-30T01:42:21;100113.41;;;16.65;100.00
4576;BME280;2300;51.874;8.430;2023-07-30T01:44:47;100099.56;;;16.60;100.00
4576;BME280;2300;51.874;8.430;2023-07-30T01:47:14;100111.25;;;16.57;100.00
4576;BME280;2300;51.874;8.430;2023-07-30T01:49:40;100111.78;;;16.54;100.00
4576;BME280;2300;51.874;8.430;2023-07-30T01:52:07;100116.84;;;16.47;100.00
4576;BME280;2300;51.874;8.430;2023-07-30T01:54:33;100120.16;;;16.44;100.00
4576;BME280;2300;51.874;8.430;2023-07-30T01:57:02;100116.06;;;16.36;100.00
4576;BME280;2300;51.874;8.430;2023-07-30T01:59:28;100115.25;;;16.30;100.00
4576;BME280;2300;51.874;8.430;2023-07-30T02:01:55;100119.41;;;16.28;100.00
4576;BME280;2300;51.874;8.430;2023-07-30T02:04:21;100116.94;;;16.26;100.00
4576;BME280;2300;51.874;8.430;2023-07-30T02:06:48;100108.09;;;16.19;100.00
4576;BME280;2300;51.874;8.430;2023-07-30T02:09:15;100112.25;;;16.17;100.00
4576;BME280;2300;51.874;8.430;2023-07-30T02:11:41;100115.88;;;16.12;100.00
4576;BME280;2300;51.874;8.430;2023-07-30T02:14:10;100111.97;;;16.08;100.00
4576;BME280;2300;51.874;8.430;2023-07-30T02:16:36;100116.16;;;16.06;100.00
4576;BME280;2300;51.874;8.430;2023-07-30T02:19:03;100114.53;;;15.95;100.00
4576;BME280;2300;51.874;8.430;2023-07-30T02:21:30;100118.69;;;15.92;100.00
4576;BME280;2300;51.874;8.430;2023-07-30T02:23:58;100115.09;;;15.86;100.00
4576;BME280;2300;51.874;8.430;2023-07-30T02:26:25;100121.47;;;15.87;100.00
4576;BME280;2300;51.874;8.430;2023-07-30T02:28:52;100119.78;;;15.91;100.00
4576;BME280;2300;51.874;8.430;2023-07-30T02:31:19;100127.00;;;15.82;100.00
4576;BME280;2300;51.874;8.430;2023-07-30T02:33:46;100123.41;;;15.86;100.00
4576;BME280;2300;51.874;8.430;2023-07-30T02:36:13;100117.03;;;15.81;100.00
4576;BME280;2300;51.874;8.430;2023-07-30T02:38:39;100125.34;;;15.86;100.00
4576;BME280;2300;51.874;8.430;2023-07-30T02:41:06;100132.28;;;15.83;100.00
4576;BME280;2300;51.874;8.430;2023-07-30T02:43:32;100124.25;;;15.82;100.00
4576;BME280;2300;51.874;8.430;2023-07-30T02:45:59;100125.91;;;15.78;100.00
4576;BME280;2300;51.874;8.430;2023-07-30T02:48:27;100121.47;;;15.77;100.00
4576;BME280;2300;51.874;8.430;2023-07-30T02:50:53;100130.88;;;15.76;100.00
4576;BME280;2300;51.874;8.430;2023-07-30T02:53:20;100127.84;;;15.77;100.00
4576;BME280;2300;51.874;8.430;2023-07-30T02:55:47;100132.03;;;15.75;100.00
4576;BME280;2300;51.874;8.430;2023-07-30T02:58:13;100130.38;;;15.69;100.00
4576;BME280;2300;51.874;8.430;2023-07-30T03:00:40;100138.69;;;15.64;100.00
4576;BME280;2300;51.874;8.430;2023-07-30T03:03:06;100141.72;;;15.62;100.00
4576;BME280;2300;51.874;8.430;2023-07-30T03:05:34;100143.38;;;15.63;100.00
4576;BME280;2300;51.874;8.430;2023-07-30T03:08:01;100146.16;;;15.58;100.00
4576;BME280;2300;51.874;8.430;2023-07-30T03:10:27;100148.63;;;15.49;100.00
4576;BME280;2300;51.874;8.430;2023-07-30T03:12:54;100137.31;;;15.46;100.00
4576;BME280;2300;51.874;8.430;2023-07-30T03:15:20;100152.81;;;15.47;100.00
4576;BME280;2300;51.874;8.430;2023-07-30T03:17:47;100138.97;;;15.37;100.00
4576;BME280;2300;51.874;8.430;2023-07-30T03:20:13;100145.63;;;15.31;100.00
4576;BME280;2300;51.874;8.430;2023-07-30T03:22:41;100140.91;;;15.31;100.00
4576;BME280;2300;51.874;8.430;2023-07-30T03:25:08;100148.38;;;15.26;100.00
4576;BME280;2300;51.874;8.430;2023-07-30T03:27:34;100143.69;;;15.16;100.00
4576;BME280;2300;51.874;8.430;2023-07-30T03:30:01;100150.03;;;15.17;100.00
4576;BME280;2300;51.874;8.430;2023-07-30T03:32:27;100154.16;;;15.14;100.00
4576;BME280;2300;51.874;8.430;2023-07-30T03:34:54;100147.53;;;15.15;100.00
4576;BME280;2300;51.874;8.430;2023-07-30T03:37:21;100146.44;;;15.16;100.00
4576;BME280;2300;51.874;8.430;2023-07-30T03:39:48;100147.00;;;15.13;100.00
4576;BME280;2300;51.874;8.430;2023-07-30T03:42:15;100145.59;;;15.11;100.00
4576;BME280;2300;51.874;8.430;2023-07-30T03:44:41;100144.19;;;15.08;100.00
4576;BME280;2300;51.874;8.430;2023-07-30T03:47:08;100146.94;;;15.03;100.00
4576;BME280;2300;51.874;8.430;2023-07-30T03:49:35;100154.41;;;14.97;100.00
4576;BME280;2300;51.874;8.430;2023-07-30T03:52:03;100129.78;;;14.81;100.00
4576;BME280;2300;51.874;8.430;2023-07-30T03:54:30;100150.53;;;14.93;100.00
4576;BME280;2300;51.874;8.430;2023-07-30T03:56:57;100156.59;;;14.85;100.00
4576;BME280;2300;51.874;8.430;2023-07-30T03:59:24;100154.38;;;14.87;100.00
4576;BME280;2300;51.874;8.430;2023-07-30T04:01:51;100154.38;;;14.82;100.00
4576;BME280;2300;51.874;8.430;2023-07-30T04:04:18;100156.31;;;14.82;100.00
4576;BME280;2300;51.874;8.430;2023-07-30T04:06:44;100153.00;;;14.85;100.00
4576;BME280;2300;51.874;8.430;2023-07-30T04:09:11;100156.88;;;14.89;100.00
4576;BME280;2300;51.874;8.430;2023-07-30T04:11:38;100164.63;;;14.92;100.00
4576;BME280;2300;51.874;8.430;2023-07-30T04:14:06;100158.53;;;14.85;100.00
4576;BME280;2300;51.874;8.430;2023-07-30T04:16:34;100161.88;;;14.92;100.00
4576;BME280;2300;51.874;8.430;2023-07-30T04:19:00;100158.53;;;14.95;100.00
4576;BME280;2300;51.874;8.430;2023-07-30T04:21:27;100153.84;;;14.85;100.00
4576;BME280;2300;51.874;8.430;2023-07-30T04:23:53;100156.88;;;14.94;100.00
4576;BME280;2300;51.874;8.430;2023-07-30T04:26:20;100159.66;;;14.99;100.00
4576;BME280;2300;51.874;8.430;2023-07-30T04:28:46;100155.78;;;14.95;100.00
4576;BME280;2300;51.874;8.430;2023-07-30T04:31:14;100154.41;;;14.97;100.00
4576;BME280;2300;51.874;8.430;2023-07-30T04:33:41;100156.91;;;15.04;100.00
4576;BME280;2300;51.874;8.430;2023-07-30T04:36:08;100160.22;;;14.96;100.00
4576;BME280;2300;51.874;8.430;2023-07-30T04:38:34;100156.34;;;14.97;100.00
4576;BME280;2300;51.874;8.430;2023-07-30T04:41:01;100152.47;;;14.98;100.00
4576;BME280;2300;51.874;8.430;2023-07-30T04:43:28;100157.97;;;14.98;100.00
4576;BME280;2300;51.874;8.430;2023-07-30T04:45:55;100155.78;;;15.05;100.00
4576;BME280;2300;51.874;8.430;2023-07-30T04:48:23;100155.22;;;15.03;100.00
4576;BME280;2300;51.874;8.430;2023-07-30T04:50:49;100159.44;;;15.11;100.00
4576;BME280;2300;51.874;8.430;2023-07-30T04:53:16;100158.88;;;15.19;100.00
4576;BME280;2300;51.874;8.430;2023-07-30T04:55:43;100171.34;;;15.31;100.00
4576;BME280;2300;51.874;8.430;2023-07-30T04:58:10;100174.09;;;15.36;100.00
4576;BME280;2300;51.874;8.430;2023-07-30T05:00:36;100174.66;;;15.43;100.00
4576;BME280;2300;51.874;8.430;2023-07-30T05:03:03;100178.53;;;15.68;100.00
4576;BME280;2300;51.874;8.430;2023-07-30T05:05:32;100177.94;;;15.76;100.00
4576;BME280;2300;51.874;8.430;2023-07-30T05:08:00;100177.91;;;16.06;100.00
4576;BME280;2300;51.874;8.430;2023-07-30T05:10:26;100179.41;;;16.63;100.00
4576;BME280;2300;51.874;8.430;2023-07-30T05:12:53;100183.34;;;17.74;96.53
4576;BME280;2300;51.874;8.430;2023-07-30T05:15:19;100176.09;;;18.30;90.28
4576;BME280;2300;51.874;8.430;2023-07-30T05:17:46;100173.53;;;18.39;88.45
4576;BME280;2300;51.874;8.430;2023-07-30T05:20:12;100175.03;;;18.50;88.74
4576;BME280;2300;51.874;8.430;2023-07-30T05:22:40;100174.56;;;18.43;87.68
4576;BME280;2300;51.874;8.430;2023-07-30T05:25:08;100168.88;;;18.53;87.17
4576;BME280;2300;51.874;8.430;2023-07-30T05:27:35;100177.16;;;18.58;86.43
4576;BME280;2300;51.874;8.430;2023-07-30T05:30:01;100165.47;;;18.37;85.87
4576;BME280;2300;51.874;8.430;2023-07-30T05:32:28;100175.16;;;18.16;86.77
4576;BME280;2300;51.874;8.430;2023-07-30T05:34:55;100173.94;;;18.27;86.77
4576;BME280;2300;51.874;8.430;2023-07-30T05:37:22;100169.31;;;19.03;83.75
4576;BME280;2300;51.874;8.430;2023-07-30T05:39:50;100180.31;;;19.83;79.86
4576;BME280;2300;51.874;8.430;2023-07-30T05:42:17;100169.50;;;20.22;78.97
4576;BME280;2300;51.874;8.430;2023-07-30T05:44:43;100179.41;;;20.01;78.48
4576;BME280;2300;51.874;8.430;2023-07-30T05:47:10;100184.41;;;20.72;78.17
4576;BME280;2300;51.874;8.430;2023-07-30T05:49:37;100190.78;;;21.80;74.17
4576;BME280;2300;51.874;8.430;2023-07-30T05:52:04;100180.53;;;22.29;72.14
4576;BME280;2300;51.874;8.430;2023-07-30T05:54:31;100179.44;;;22.87;69.95
4576;BME280;2300;51.874;8.430;2023-07-30T05:56:59;100179.28;;;22.92;68.24
4576;BME280;2300;51.874;8.430;2023-07-30T05:59:25;100190.81;;;22.90;69.51
4576;BME280;2300;51.874;8.430;2023-07-30T06:01:52;100194.00;;;22.58;68.48
4576;BME280;2300;51.874;8.430;2023-07-30T06:04:19;100183.13;;;22.17;69.33
4576;BME280;2300;51.874;8.430;2023-07-30T06:06:45;100188.91;;;22.20;70.30
4576;BME280;2300;51.874;8.430;2023-07-30T06:09:12;100192.41;;;21.95;71.28
4576;BME280;2300;51.874;8.430;2023-07-30T06:11:38;100194.25;;;21.55;71.23
4576;BME280;2300;51.874;8.430;2023-07-30T06:14:06;100202.41;;;21.29;72.57
4576;BME280;2300;51.874;8.430;2023-07-30T06:16:33;100208.31;;;21.95;72.58
4576;BME280;2300;51.874;8.430;2023-07-30T06:19:00;100194.22;;;22.00;70.68
4576;BME280;2300;51.874;8.430;2023-07-30T06:21:26;100198.84;;;22.44;69.91
4576;BME280;2300;51.874;8.430;2023-07-30T06:23:53;100209.25;;;22.43;69.26
4576;BME280;2300;51.874;8.430;2023-07-30T06:26:19;100186.25;;;21.40;71.08
4576;BME280;2300;51.874;8.430;2023-07-30T06:28:46;100196.19;;;21.55;71.38
4576;BME280;2300;51.874;8.430;2023-07-30T06:31:14;100195.22;;;21.01;72.32
4576;BME280;2300;51.874;8.430;2023-07-30T06:33:40;100209.81;;;21.20;73.04
4576;BME280;2300;51.874;8.430;2023-07-30T06:36:07;100186.97;;;20.28;74.02
4576;BME280;2300;51.874;8.430;2023-07-30T06:38:33;100194.59;;;19.95;77.16
4576;BME280;2300;51.874;8.430;2023-07-30T06:41:00;100203.97;;;19.66;78.55
4576;BME280;2300;51.874;8.430;2023-07-30T06:43:27;100209.06;;;19.59;79.29
4576;BME280;2300;51.874;8.430;2023-07-30T06:45:53;100205.41;;;19.08;80.01
4576;BME280;2300;51.874;8.430;2023-07-30T06:48:21;100208.50;;;18.64;82.33
4576;BME280;2300;51.874;8.430;2023-07-30T06:50:48;100209.84;;;18.66;82.65
4576;BME280;2300;51.874;8.430;2023-07-30T06:53:15;100205.78;;;18.59;83.17
4576;BME280;2300;51.874;8.430;2023-07-30T06:55:41;100207.94;;;18.43;82.34
4576;BME280;2300;51.874;8.430;2023-07-30T06:58:08;100214.88;;;18.17;83.69
4576;BME280;2300;51.874;8.430;2023-07-30T07:00:34;100216.66;;;18.08;84.00
4576;BME280;2300;51.874;8.430;2023-07-30T07:03:01;100211.69;;;17.71;84.32
4576;BME280;2300;51.874;8.430;2023-07-30T07:05:29;100215.34;;;17.66;86.15
4576;BME280;2300;51.874;8.430;2023-07-30T07:07:56;100217.25;;;17.71;86.15
4576;BME280;2300;51.874;8.430;2023-07-30T07:10:22;100228.81;;;17.49;86.60
4576;BME280;2300;51.874;8.430;2023-07-30T07:12:49;100224.56;;;17.62;87.65
4576;BME280;2300;51.874;8.430;2023-07-30T07:15:16;100221.53;;;17.53;87.43
4576;BME280;2300;51.874;8.430;2023-07-30T07:17:42;100221.22;;;17.59;87.06
4576;BME280;2300;51.874;8.430;2023-07-30T07:20:09;100234.91;;;17.51;87.14
4576;BME280;2300;51.874;8.430;2023-07-30T07:22:38;100240.44;;;17.51;87.97
4576;BME280;2300;51.874;8.430;2023-07-30T07:25:05;100233.00;;;17.41;87.46
4576;BME280;2300;51.874;8.430;2023-07-30T07:27:31;100240.09;;;17.24;88.53
4576;BME280;2300;51.874;8.430;2023-07-30T07:29:58;100219.69;;;17.04;88.30
4576;BME280;2300;51.874;8.430;2023-07-30T07:32:25;100239.88;;;17.15;88.88
4576;BME280;2300;51.874;8.430;2023-07-30T07:34:51;100242.91;;;17.13;89.09
4576;BME280;2300;51.874;8.430;2023-07-30T07:37:18;100243.50;;;17.05;89.57
4576;BME280;2300;51.874;8.430;2023-07-30T07:39:46;100240.16;;;17.13;89.88
4576;BME280;2300;51.874;8.430;2023-07-30T07:42:13;100245.09;;;17.16;89.64
4576;BME280;2300;51.874;8.430;2023-07-30T07:44:39;100241.81;;;17.14;89.56
4576;BME280;2300;51.874;8.430;2023-07-30T07:47:07;100240.19;;;17.08;89.55
4576;BME280;2300;51.874;8.430;2023-07-30T07:49:34;100241.84;;;17.09;90.37
4576;BME280;2300;51.874;8.430;2023-07-30T07:52:00;100248.50;;;17.08;90.20
4576;BME280;2300;51.874;8.430;2023-07-30T07:54:27;100242.88;;;17.18;90.19
4576;BME280;2300;51.874;8.430;2023-07-30T07:56:55;100239.22;;;17.28;90.28
4576;BME280;2300;51.874;8.430;2023-07-30T07:59:21;100236.91;;;17.40;90.13
4576;BME280;2300;51.874;8.430;2023-07-30T08:01:48;100236.97;;;17.35;89.95
4576;BME280;2300;51.874;8.430;2023-07-30T08:04:14;100237.31;;;17.57;88.91
4576;BME280;2300;51.874;8.430;2023-07-30T08:06:41;100235.09;;;17.59;88.48
4576;BME280;2300;51.874;8.430;2023-07-30T08:09:07;100241.72;;;17.64;88.20
4576;BME280;2300;51.874;8.430;2023-07-30T08:11:35;100245.53;;;17.39;88.21
4576;BME280;2300;51.874;8.430;2023-07-30T08:14:03;100242.31;;;17.22;88.82
4576;BME280;2300;51.874;8.430;2023-07-30T08:16:29;100235.94;;;17.16;89.06
4576;BME280;2300;51.874;8.430;2023-07-30T08:18:56;100242.63;;;17.15;89.35
4576;BME280;2300;51.874;8.430;2023-07-30T08:21:22;100240.44;;;17.07;89.79
4576;BME280;2300;51.874;8.430;2023-07-30T08:23:49;100242.91;;;17.13;90.14
4576;BME280;2300;51.874;8.430;2023-07-30T08:26:16;100241.78;;;17.20;89.83
4576;BME280;2300;51.874;8.430;2023-07-30T08:28:42;100244.44;;;17.35;90.30
4576;BME280;2300;51.874;8.430;2023-07-30T08:31:10;100246.34;;;17.39;89.68
4576;BME280;2300;51.874;8.430;2023-07-30T08:33:37;100248.34;;;17.34;89.90
4576;BME280;2300;51.874;8.430;2023-07-30T08:36:04;100240.94;;;17.19;89.88
4576;BME280;2300;51.874;8.430;2023-07-30T08:38:30;100253.47;;;17.01;90.11
4576;BME280;2300;51.874;8.430;2023-07-30T08:40:57;100253.00;;;16.89;90.96
4576;BME280;2300;51.874;8.430;2023-07-30T08:43:24;100251.81;;;17.00;91.11
4576;BME280;2300;51.874;8.430;2023-07-30T08:45:50;100254.53;;;17.15;91.14
4576;BME280;2300;51.874;8.430;2023-07-30T08:48:18;100257.03;;;17.17;90.91
4576;BME280;2300;51.874;8.430;2023-07-30T08:50:45;100253.25;;;17.42;90.85
4576;BME280;2300;51.874;8.430;2023-07-30T08:53:12;100264.25;;;17.57;89.97
4576;BME280;2300;51.874;8.430;2023-07-30T08:55:40;100253.38;;;17.66;89.46
4576;BME280;2300;51.874;8.430;2023-07-30T08:58:07;100255.13;;;17.90;88.92
4576;BME280;2300;51.874;8.430;2023-07-30T09:00:37;100256.88;;;17.81;87.34
4576;BME280;2300;51.874;8.430;2023-07-30T09:03:05;100255.84;;;17.67;88.31
4576;BME280;2300;51.874;8.430;2023-07-30T09:05:34;100266.66;;;17.69;88.30
4576;BME280;2300;51.874;8.430;2023-07-30T09:08:01;100255.28;;;17.70;87.87
4576;BME280;2300;51.874;8.430;2023-07-30T09:10:27;100257.41;;;18.17;88.17
4576;BME280;2300;51.874;8.430;2023-07-30T09:12:55;100257.63;;;18.21;86.81
4576;BME280;2300;51.874;8.430;2023-07-30T09:15:30;100268.78;;;18.16;86.53
4576;BME280;2300;51.874;8.430;2023-07-30T09:17:57;100273.78;;;18.19;86.82
4576;BME280;2300;51.874;8.430;2023-07-30T09:20:24;100268.25;;;18.14;87.27
4576;BME280;2300;51.874;8.430;2023-07-30T09:22:52;100269.22;;;17.99;87.95
4576;BME280;2300;51.874;8.430;2023-07-30T09:25:19;100274.69;;;17.75;88.63
4576;BME280;2300;51.874;8.430;2023-07-30T09:27:47;100281.50;;;17.54;89.78
4576;BME280;2300;51.874;8.430;2023-07-30T09:30:15;100287.31;;;17.52;90.27
4576;BME280;2300;51.874;8.430;2023-07-30T09:32:51;100279.38;;;17.41;91.67
4576;BME280;2300;51.874;8.430;2023-07-30T09:35:19;100298.47;;;17.47;91.92
4576;BME280;2300;51.874;8.430;2023-07-30T09:37:46;100290.06;;;17.57;92.03
4576;BME280;2300;51.874;8.430;2023-07-30T09:40:15;100299.94;;;17.74;91.94
4576;BME280;2300;51.874;8.430;2023-07-30T09:42:45;100281.25;;;17.84;89.98
4576;BME280;2300;51.874;8.430;2023-07-30T09:45:16;100295.31;;;18.03;88.71
4576;BME280;2300;51.874;8.430;2023-07-30T09:47:46;100295.31;;;18.03;88.28
4576;BME280;2300;51.874;8.430;2023-07-30T09:50:13;100313.16;;;18.26;88.38
4576;BME280;2300;51.874;8.430;2023-07-30T09:52:40;100312.19;;;18.12;86.84
4576;BME280;2300;51.874;8.430;2023-07-30T09:55:07;100314.91;;;18.17;87.53
4576;BME280;2300;51.874;8.430;2023-07-30T09:57:35;100308.47;;;17.87;87.58
4576;BME280;2300;51.874;8.430;2023-07-30T10:00:02;100325.09;;;17.92;87.82
4576;BME280;2300;51.874;8.430;2023-07-30T10:02:30;100320.78;;;17.76;87.62
4576;BME280;2300;51.874;8.430;2023-07-30T10:04:59;100312.34;;;17.47;88.93
4576;BME280;2300;51.874;8.430;2023-07-30T10:07:27;100327.09;;;17.43;89.33
4576;BME280;2300;51.874;8.430;2023-07-30T10:09:58;100317.69;;;17.39;89.79
4576;BME280;2300;51.874;8.430;2023-07-30T10:12:29;100307.69;;;17.38;89.42
4576;BME280;2300;51.874;8.430;2023-07-30T10:14:58;100321.78;;;17.51;90.11
4576;BME280;2300;51.874;8.430;2023-07-30T10:17:26;100281.59;;;17.39;89.49
4576;BME280;2300;51.874;8.430;2023-07-30T10:19:54;100307.41;;;17.78;87.96
4576;BME280;2300;51.874;8.430;2023-07-30T10:22:22;100314.06;;;18.16;88.14
4576;BME280;2300;51.874;8.430;2023-07-30T10:24:57;100318.13;;;18.58;85.31
4576;BME280;2300;51.874;8.430;2023-07-30T10:27:25;100313.06;;;19.31;84.94
4576;BME280;2300;51.874;8.430;2023-07-30T10:30:08;100320.88;;;19.29;81.64
4576;BME280;2300;51.874;8.430;2023-07-30T10:32:38;100316.19;;;19.06;81.29
4576;BME280;2300;51.874;8.430;2023-07-30T10:35:05;100317.25;;;19.10;81.27
4576;BME280;2300;51.874;8.430;2023-07-30T10:37:32;100315.25;;;19.34;81.85
4576;BME280;2300;51.874;8.430;2023-07-30T10:39:58;100321.06;;;19.56;80.97
4576;BME280;2300;51.874;8.430;2023-07-30T10:42:33;100311.03;;;19.55;79.26
4576;BME280;2300;51.874;8.430;2023-07-30T10:45:00;100308.09;;;19.28;80.31
4576;BME280;2300;51.874;8.430;2023-07-30T10:47:28;100305.78;;;19.35;80.27
4576;BME280;2300;51.874;8.430;2023-07-30T10:50:00;100310.09;;;19.65;81.06
4576;BME280;2300;51.874;8.430;2023-07-30T10:52:28;100311.81;;;19.98;80.12
4576;BME280;2300;51.874;8.430;2023-07-30T10:54:59;100292.97;;;19.90;78.86
4576;BME280;2300;51.874;8.430;2023-07-30T10:57:30;100309.19;;;19.88;78.08
4576;BME280;2300;51.874;8.430;2023-07-30T10:59:57;100300.16;;;20.42;78.73
4576;BME280;2300;51.874;8.430;2023-07-30T11:02:25;100297.44;;;20.56;76.34
4576;BME280;2300;51.874;8.430;2023-07-30T11:04:53;100298.25;;;20.57;76.71
4576;BME280;2300;51.874;8.430;2023-07-30T11:07:19;100308.28;;;20.85;77.29
4576;BME280;2300;51.874;8.430;2023-07-30T11:09:58;100298.25;;;20.98;74.64
4576;BME280;2300;51.874;8.430;2023-07-30T11:12:25;100298.56;;;20.96;75.35
4576;BME280;2300;51.874;8.430;2023-07-30T11:15:00;100288.44;;;21.14;73.79
4576;BME280;2300;51.874;8.430;2023-07-30T11:17:26;100285.97;;;20.99;73.55
4576;BME280;2300;51.874;8.430;2023-07-30T11:19:54;100288.63;;;20.49;73.30
4576;BME280;2300;51.874;8.430;2023-07-30T11:22:29;100286.13;;;20.47;73.99
4576;BME280;2300;51.874;8.430;2023-07-30T11:24:56;100279.25;;;20.26;75.40
4576;BME280;2300;51.874;8.430;2023-07-30T11:27:22;100281.81;;;20.69;75.63
4576;BME280;2300;51.874;8.430;2023-07-30T11:29:54;100281.59;;;21.33;74.91
4576;BME280;2300;51.874;8.430;2023-07-30T11:32:20;100284.63;;;21.59;73.79
4576;BME280;2300;51.874;8.430;2023-07-30T11:34:50;100277.72;;;21.79;73.03
4576;BME280;2300;51.874;8.430;2023-07-30T11:37:19;100281.28;;;21.93;72.96
4576;BME280;2300;51.874;8.430;2023-07-30T11:39:46;100266.41;;;21.62;69.04
4576;BME280;2300;51.874;8.430;2023-07-30T11:42:13;100260.97;;;21.79;71.38
4576;BME280;2300;51.874;8.430;2023-07-30T11:44:39;100270.00;;;21.98;68.65
4576;BME280;2300;51.874;8.430;2023-07-30T11:47:06;100269.22;;;21.84;69.37
4576;BME280;2300;51.874;8.430;2023-07-30T11:49:34;100275.88;;;22.19;69.50
4576;BME280;2300;51.874;8.430;2023-07-30T11:52:05;100277.66;;;22.37;66.25
4576;BME280;2300;51.874;8.430;2023-07-30T11:54:33;100269.66;;;22.22;65.71
4576;BME280;2300;51.874;8.430;2023-07-30T11:56:59;100281.75;;;22.09;66.05
4576;BME280;2300;51.874;8.430;2023-07-30T11:59:26;100279.38;;;22.02;65.99
4576;BME280;2300;51.874;8.430;2023-07-30T12:01:53;100279.03;;;21.59;66.08
4576;BME280;2300;51.874;8.430;2023-07-30T12:04:19;100275.38;;;21.36;65.98
4576;BME280;2300;51.874;8.430;2023-07-30T12:06:48;100272.28;;;21.11;65.82
4576;BME280;2300;51.874;8.430;2023-07-30T12:09:16;100276.22;;;21.10;65.72
4576;BME280;2300;51.874;8.430;2023-07-30T12:11:46;100286.44;;;21.14;65.35
4576;BME280;2300;51.874;8.430;2023-07-30T12:14:13;100290.09;;;21.01;65.93
4576;BME280;2300;51.874;8.430;2023-07-30T12:16:40;100282.56;;;20.88;65.60
4576;BME280;2300;51.874;8.430;2023-07-30T12:19:06;100277.69;;;20.66;66.51
4576;BME280;2300;51.874;8.430;2023-07-30T12:21:33;100294.75;;;20.32;66.94
4576;BME280;2300;51.874;8.430;2023-07-30T12:24:00;100281.38;;;20.02;68.75
4576;BME280;2300;51.874;8.430;2023-07-30T12:26:26;100282.06;;;19.94;69.00
4576;BME280;2300;51.874;8.430;2023-07-30T12:28:54;100291.09;;;19.86;69.86
4576;BME280;2300;51.874;8.430;2023-07-30T12:31:21;100304.00;;;19.82;70.34
4576;BME280;2300;51.874;8.430;2023-07-30T12:33:48;100308.88;;;19.52;72.99
4576;BME280;2300;51.874;8.430;2023-07-30T12:36:14;100301.72;;;19.27;74.12
4576;BME280;2300;51.874;8.430;2023-07-30T12:38:41;100309.09;;;19.37;74.97
4576;BME280;2300;51.874;8.430;2023-07-30T12:41:07;100303.69;;;19.83;76.03
4576;BME280;2300;51.874;8.430;2023-07-30T12:43:34;100302.94;;;20.42;75.12
4576;BME280;2300;51.874;8.430;2023-07-30T12:46:02;100288.13;;;21.02;72.70
4576;BME280;2300;51.874;8.430;2023-07-30T12:48:28;100296.00;;;21.63;71.46
4576;BME280;2300;51.874;8.430;2023-07-30T12:50:55;100287.00;;;21.88;70.13
4576;BME280;2300;51.874;8.430;2023-07-30T12:53:21;100290.81;;;21.70;67.33
4576;BME280;2300;51.874;8.430;2023-07-30T12:55:48;100286.59;;;21.59;65.71
4576;BME280;2300;51.874;8.430;2023-07-30T12:58:16;100281.38;;;21.30;66.62
4576;BME280;2300;51.874;8.430;2023-07-30T13:00:43;100280.13;;;21.36;65.48
4576;BME280;2300;51.874;8.430;2023-07-30T13:03:11;100288.13;;;21.65;66.88
4576;BME280;2300;51.874;8.430;2023-07-30T13:05:38;100283.13;;;21.40;64.68
4576;BME280;2300;51.874;8.430;2023-07-30T13:08:05;100284.09;;;21.21;66.29